Terminal Aerodrome Forecast
Issued by NWS Melbourne, FL

Home | Current Version | Previous Version | Text Only | Print | Product List | Glossary On
Versions: 1 2 3 4 5 6 7 8 9 10 11 12 13 14 15 16 17 18 19 20 21 22 23 24 25 26 27
000
FTUS42 KMLB 142300
TAFMCO
TAF
KMCO 142336Z 1500/1524 20010KT P6SM VCSH BKN040 BKN050 BKN300
     FM150400 VRB02KT P6SM FEW020 FEW250
     FM151400 17003KT P6SM FEW040 SCT250
     FM152100 11006KT P6SM VCTS SCT035CB=

USA.gov is the U.S. government's official web portal to all federal, state and local government web resources and services.